Terminal Aerodrome Forecast
Issued by NWS

Home | Current Version | Previous Version | Text Only | Print | Product List | Glossary On
Versions: 1 2 3 4 5 6 7 8 9 10 11 12 13 14 15 16 17 18 19 20 21 22 23 24 25 26 27 28 29 30
000
FTUS43 KLSX 302320
TAFUIN
TAF
KUIN 302320Z 3100/3124 34004KT P6SM FEW035
     FM310200 VRB02KT P6SM SCT250
     FM310900 00000KT 3SM BR SCT009
     FM311300 VRB03KT P6SM SCT025 BKN035
     FM312100 15004KT P6SM BKN090=

USA.gov is the U.S. government's official web portal to all federal, state and local government web resources and services.